createdAt,value
2022-11-30T00:01:18.345Z,9.00
2022-11-30T00:03:54.527Z,8.68
2022-11-30T00:06:27.511Z,8.25
2022-11-30T00:11:34.081Z,8.52
2022-11-30T00:14:08.409Z,7.45
2022-11-30T00:16:41.424Z,8.50
2022-11-30T00:21:47.716Z,7.07
2022-11-30T00:24:20.503Z,7.03
2022-11-30T00:26:53.480Z,7.47
2022-11-30T00:32:00.266Z,7.53
2022-11-30T00:34:33.225Z,7.05
2022-11-30T00:37:06.022Z,7.13
2022-11-30T00:39:39.048Z,7.13
2022-11-30T00:44:46.917Z,7.30
2022-11-30T00:47:20.202Z,7.88
2022-11-30T00:49:53.498Z,7.43
2022-11-30T00:52:26.427Z,6.85
2022-11-30T00:57:37.178Z,7.05
2022-11-30T01:00:13.087Z,7.18
2022-11-30T01:02:46.266Z,7.05
2022-11-30T01:05:19.237Z,6.75
2022-11-30T01:07:52.331Z,6.47
2022-11-30T01:10:25.128Z,6.95
2022-11-30T01:12:58.295Z,7.07
2022-11-30T01:15:36.656Z,6.75
2022-11-30T01:18:10.140Z,6.85
2022-11-30T01:20:43.892Z,6.38
2022-11-30T01:23:16.928Z,6.57
2022-11-30T01:28:27.633Z,6.13
2022-11-30T01:33:36.675Z,6.70
2022-11-30T01:36:13.466Z,7.10
2022-11-30T01:38:49.693Z,6.30
2022-11-30T01:41:24.664Z,6.70
2022-11-30T01:43:59.699Z,6.38
2022-11-30T01:46:39.592Z,6.03
2022-11-30T01:49:18.206Z,6.70
2022-11-30T01:51:54.904Z,5.80
2022-11-30T01:54:34.298Z,5.75
2022-11-30T01:57:12.420Z,7.00
2022-11-30T01:59:45.572Z,6.22
2022-11-30T02:02:26.250Z,5.72
2022-11-30T02:04:59.135Z,6.30
2022-11-30T02:07:32.069Z,5.68
2022-11-30T02:12:46.255Z,6.38
2022-11-30T02:15:23.926Z,5.70
2022-11-30T02:18:06.900Z,5.57
2022-11-30T02:21:02.210Z,6.22
2022-11-30T02:23:51.950Z,5.50
2022-11-30T02:26:40.736Z,5.70
2022-11-30T02:29:20.411Z,5.80
2022-11-30T02:32:02.717Z,5.55
2022-11-30T02:34:38.267Z,6.07
2022-11-30T02:37:15.069Z,5.70
2022-11-30T02:39:48.238Z,5.80
2022-11-30T02:42:21.317Z,5.28
2022-11-30T02:47:36.232Z,5.50
2022-11-30T02:50:16.026Z,5.20
2022-11-30T02:52:49.781Z,5.40
2022-11-30T02:55:23.035Z,5.40
2022-11-30T02:57:55.739Z,5.30
2022-11-30T03:00:30.396Z,4.70
2022-11-30T03:03:04.557Z,5.80
2022-11-30T03:05:38.203Z,5.25
2022-11-30T03:08:11.152Z,6.13
2022-11-30T03:13:16.808Z,5.72
2022-11-30T03:18:23.793Z,4.93
2022-11-30T03:20:56.623Z,4.50
2022-11-30T03:23:30.254Z,4.70
2022-11-30T03:26:03.993Z,4.97
2022-11-30T03:28:37.848Z,5.28
2022-11-30T03:31:13.754Z,4.63
2022-11-30T03:33:46.658Z,5.00
2022-11-30T03:36:19.545Z,5.18
2022-11-30T03:38:52.938Z,5.03
2022-11-30T03:41:25.681Z,5.22
2022-11-30T03:43:58.394Z,4.78
2022-11-30T03:46:34.213Z,5.05
2022-11-30T03:49:07.310Z,5.00
2022-11-30T03:54:13.063Z,4.72
2022-11-30T03:56:45.806Z,5.00
2022-11-30T03:59:18.581Z,4.68
2022-11-30T04:01:52.715Z,4.75
2022-11-30T04:04:25.611Z,4.35
2022-11-30T04:06:58.790Z,4.88
2022-11-30T04:12:05.403Z,4.15
2022-11-30T04:14:38.259Z,4.53
2022-11-30T04:19:44.979Z,4.20
2022-11-30T04:22:17.838Z,5.40
2022-11-30T04:24:50.772Z,4.70
2022-11-30T04:29:58.326Z,4.03
2022-11-30T04:32:32.625Z,4.72
2022-11-30T04:35:06.126Z,4.00
2022-11-30T04:37:39.125Z,4.60
2022-11-30T04:42:45.260Z,4.20
2022-11-30T04:45:18.142Z,4.40
2022-11-30T04:47:52.394Z,4.45
2022-11-30T04:50:25.764Z,4.30
2022-11-30T04:52:59.195Z,4.45
2022-11-30T04:55:32.584Z,4.15
2022-11-30T04:58:05.427Z,4.10
2022-11-30T05:00:41.924Z,3.97
2022-11-30T05:03:16.159Z,4.18
2022-11-30T05:05:49.662Z,4.43
2022-11-30T05:08:22.465Z,4.32
2022-11-30T05:10:55.851Z,4.20
2022-11-30T05:13:28.792Z,4.13
2022-11-30T05:18:36.897Z,3.95
2022-11-30T05:21:09.777Z,4.70
2022-11-30T05:23:42.708Z,4.43
2022-11-30T05:28:48.637Z,4.55
2022-11-30T05:31:21.440Z,4.47
2022-11-30T05:33:56.095Z,4.10
2022-11-30T05:36:29.502Z,4.60
2022-11-30T05:39:02.328Z,4.53
2022-11-30T05:41:35.105Z,4.65
2022-11-30T05:44:07.942Z,4.85
2022-11-30T05:46:42.420Z,4.20
2022-11-30T05:49:16.494Z,3.85
2022-11-30T05:51:49.856Z,4.22
2022-11-30T05:54:22.814Z,4.38
2022-11-30T05:59:28.502Z,4.40
2022-11-30T06:04:35.792Z,3.10
2022-11-30T06:07:12.609Z,4.70
2022-11-30T06:09:45.398Z,4.43
2022-11-30T06:12:18.346Z,4.13
2022-11-30T06:14:51.159Z,4.25
2022-11-30T06:17:23.921Z,3.80
2022-11-30T06:19:58.072Z,4.47
2022-11-30T06:22:31.561Z,3.75
2022-11-30T06:25:04.800Z,3.90
2022-11-30T06:27:37.735Z,4.22
2022-11-30T06:30:11.682Z,4.13
2022-11-30T06:32:46.372Z,4.18
2022-11-30T06:35:20.835Z,4.60
2022-11-30T06:37:54.765Z,4.07
2022-11-30T06:40:28.223Z,4.93
2022-11-30T06:43:01.360Z,4.25
2022-11-30T06:45:34.666Z,4.25
2022-11-30T06:48:07.671Z,5.05
2022-11-30T06:53:23.401Z,4.80
2022-11-30T06:55:56.309Z,5.10
2022-11-30T06:58:29.414Z,4.40
2022-11-30T07:01:02.234Z,4.75
2022-11-30T07:03:35.603Z,5.13
2022-11-30T07:08:45.540Z,4.75
2022-11-30T07:11:18.492Z,5.28
2022-11-30T07:13:51.457Z,4.95
2022-11-30T07:18:57.308Z,4.72
2022-11-30T07:21:31.548Z,4.70
2022-11-30T07:24:21.927Z,4.70
2022-11-30T07:26:54.777Z,4.60
2022-11-30T07:29:28.080Z,4.82
2022-11-30T07:32:01.119Z,5.22
2022-11-30T07:34:33.956Z,4.95
2022-11-30T07:37:08.245Z,5.10
2022-11-30T07:39:41.072Z,5.13
2022-11-30T07:42:14.741Z,5.45
2022-11-30T07:44:51.442Z,4.82
2022-11-30T07:47:26.715Z,5.03
2022-11-30T07:49:59.546Z,5.22
2022-11-30T07:52:33.912Z,5.75
2022-11-30T07:55:08.716Z,4.82
2022-11-30T07:57:41.441Z,5.25
2022-11-30T08:00:18.041Z,5.32
2022-11-30T08:02:51.287Z,4.82
2022-11-30T08:05:24.113Z,5.57
2022-11-30T08:07:58.318Z,5.45
2022-11-30T08:10:32.148Z,5.43
2022-11-30T08:13:05.008Z,5.57
2022-11-30T08:15:38.287Z,5.03
2022-11-30T08:18:11.309Z,5.45
2022-11-30T08:20:49.698Z,5.47
2022-11-30T08:23:24.161Z,5.30
2022-11-30T08:25:57.140Z,5.55
2022-11-30T08:31:03.991Z,5.70
2022-11-30T08:33:38.877Z,6.32
2022-11-30T08:36:14.160Z,6.70
2022-11-30T08:38:49.877Z,5.82
2022-11-30T08:41:23.446Z,7.00
2022-11-30T08:43:56.603Z,6.03
2022-11-30T08:49:24.512Z,6.00
2022-11-30T08:54:52.173Z,6.93
2022-11-30T08:57:27.893Z,7.43
2022-11-30T09:00:00.633Z,6.60
2022-11-30T09:02:33.377Z,6.68
2022-11-30T09:05:07.123Z,6.88
2022-11-30T09:07:39.890Z,6.43
2022-11-30T09:10:14.439Z,7.18
2022-11-30T09:12:47.089Z,7.68
2022-11-30T09:15:19.962Z,6.65
2022-11-30T09:17:52.809Z,7.40
2022-11-30T09:20:25.582Z,6.90
2022-11-30T09:23:00.572Z,7.72
2022-11-30T09:25:34.662Z,7.18
2022-11-30T09:28:12.179Z,6.63
2022-11-30T09:30:45.237Z,8.52
2022-11-30T09:33:18.156Z,6.57
2022-11-30T09:35:57.564Z,8.23
2022-11-30T09:38:30.587Z,8.07
2022-11-30T09:41:12.797Z,7.50
2022-11-30T09:43:52.665Z,7.43
2022-11-30T09:46:31.628Z,8.02
2022-11-30T09:49:06.861Z,7.78
2022-11-30T09:51:45.547Z,7.90
2022-11-30T09:54:22.375Z,7.43
2022-11-30T09:56:56.738Z,7.60
2022-11-30T09:59:32.782Z,8.20
2022-11-30T10:02:16.520Z,7.97
2022-11-30T10:04:49.736Z,8.32
2022-11-30T10:07:41.077Z,8.93
2022-11-30T10:10:34.011Z,7.60
2022-11-30T10:13:27.971Z,8.18
2022-11-30T10:16:10.917Z,8.38
2022-11-30T10:19:01.039Z,9.02
2022-11-30T10:21:46.632Z,9.25
2022-11-30T10:24:33.340Z,9.65
2022-11-30T10:27:16.726Z,8.90
2022-11-30T10:29:51.400Z,8.70
2022-11-30T10:32:33.595Z,8.13
2022-11-30T10:35:19.695Z,9.40
2022-11-30T10:37:54.761Z,8.57
2022-11-30T10:40:38.936Z,8.10
2022-11-30T10:43:22.780Z,9.20
2022-11-30T10:45:57.257Z,8.35
2022-11-30T10:48:38.482Z,8.55
2022-11-30T10:51:13.344Z,8.60
2022-11-30T10:53:46.900Z,9.65
2022-11-30T10:56:19.816Z,9.95
2022-11-30T10:58:57.916Z,9.98
2022-11-30T11:01:35.089Z,8.68
2022-11-30T11:04:17.225Z,9.77
2022-11-30T11:06:53.564Z,9.80
2022-11-30T11:09:37.942Z,10.00
2022-11-30T11:12:17.378Z,10.80
2022-11-30T11:14:50.467Z,10.18
2022-11-30T11:17:26.335Z,10.55
2022-11-30T11:19:59.882Z,10.13
2022-11-30T11:22:32.721Z,10.23
2022-11-30T11:25:17.394Z,14.43
2022-11-30T11:27:53.591Z,14.85
2022-11-30T11:30:34.469Z,17.52
2022-11-30T11:33:21.336Z,17.95
2022-11-30T11:35:55.960Z,19.42
2022-11-30T11:38:30.772Z,18.80
2022-11-30T11:41:06.443Z,21.30
2022-11-30T11:43:59.526Z,18.52
2022-11-30T11:46:34.113Z,20.70
2022-11-30T11:49:20.097Z,18.55
2022-11-30T11:52:02.032Z,15.93
2022-11-30T11:54:39.528Z,20.95
2022-11-30T11:57:15.439Z,24.63
2022-11-30T11:59:55.323Z,23.02
2022-11-30T12:02:35.913Z,22.23
2022-11-30T12:05:16.535Z,24.15
2022-11-30T12:08:02.335Z,24.90
2022-11-30T12:10:54.646Z,19.65
2022-11-30T12:13:32.498Z,16.35
2022-11-30T12:16:18.634Z,16.98
2022-11-30T12:18:59.546Z,15.43
2022-11-30T12:21:47.078Z,15.02
2022-11-30T12:24:36.419Z,16.33
2022-11-30T12:27:19.833Z,20.15
2022-11-30T12:30:06.201Z,21.85
2022-11-30T12:32:57.189Z,21.33
2022-11-30T12:35:38.095Z,21.55
2022-11-30T12:38:22.356Z,20.70
2022-11-30T12:41:05.679Z,23.17
2022-11-30T12:43:48.669Z,22.08
2022-11-30T12:46:27.211Z,20.65
2022-11-30T12:49:21.071Z,17.60
2022-11-30T12:52:04.351Z,19.50
2022-11-30T12:57:21.391Z,17.38
2022-11-30T13:00:04.640Z,20.23
2022-11-30T13:05:27.213Z,19.23
2022-11-30T13:08:06.751Z,18.15
2022-11-30T13:10:44.082Z,19.02
2022-11-30T13:13:22.160Z,19.27
2022-11-30T13:15:56.744Z,17.92
2022-11-30T13:18:30.557Z,18.83
2022-11-30T13:21:07.347Z,17.52
2022-11-30T13:23:45.010Z,17.48
2022-11-30T13:26:24.904Z,16.00
2022-11-30T13:29:18.617Z,21.58
2022-11-30T13:31:56.796Z,19.52
2022-11-30T13:34:31.085Z,19.83
2022-11-30T13:37:07.602Z,21.13
2022-11-30T13:39:48.937Z,22.17
2022-11-30T13:42:34.196Z,21.15
2022-11-30T13:45:30.332Z,21.75
2022-11-30T13:48:19.634Z,20.70
2022-11-30T13:50:52.793Z,18.55
2022-11-30T13:53:27.793Z,19.88
2022-11-30T13:56:28.932Z,17.88
2022-11-30T13:59:36.256Z,19.10
2022-11-30T14:02:58.560Z,18.30
2022-11-30T14:05:41.406Z,19.17
2022-11-30T14:08:32.344Z,17.63
2022-11-30T14:11:38.362Z,18.77
2022-11-30T14:14:45.772Z,17.58
2022-11-30T14:17:25.048Z,17.83
2022-11-30T14:20:01.745Z,18.15
2022-11-30T14:22:36.378Z,18.15
2022-11-30T14:25:14.196Z,19.30
2022-11-30T14:27:48.930Z,19.30
2022-11-30T14:30:24.559Z,17.55
2022-11-30T14:33:02.642Z,17.85
2022-11-30T14:35:40.144Z,20.88
2022-11-30T14:38:25.494Z,19.15
2022-11-30T14:40:59.462Z,18.27
2022-11-30T14:43:32.656Z,17.45
2022-11-30T14:46:11.634Z,17.27
2022-11-30T14:49:05.265Z,17.67
2022-11-30T14:51:40.825Z,17.90
2022-11-30T14:54:27.678Z,16.60
2022-11-30T14:57:03.736Z,17.02
2022-11-30T14:59:47.972Z,18.15
2022-11-30T15:02:29.709Z,18.00
2022-11-30T15:05:02.830Z,16.83
2022-11-30T15:07:37.593Z,16.70
2022-11-30T15:10:17.228Z,17.27
2022-11-30T15:12:50.296Z,18.38
2022-11-30T15:17:58.930Z,20.23
2022-11-30T15:20:38.850Z,19.55
2022-11-30T15:23:14.485Z,19.17
2022-11-30T15:25:51.837Z,20.27
2022-11-30T15:28:28.936Z,18.67
2022-11-30T15:31:06.584Z,19.40
2022-11-30T15:33:44.057Z,18.30
2022-11-30T15:36:32.048Z,18.10
2022-11-30T15:39:08.588Z,17.35
2022-11-30T15:41:42.962Z,17.25
2022-11-30T15:44:26.799Z,18.38
2022-11-30T15:47:09.495Z,18.90
2022-11-30T15:49:55.342Z,19.65
2022-11-30T15:52:30.071Z,17.75
2022-11-30T15:55:05.282Z,15.95
2022-11-30T15:58:01.504Z,17.23
2022-11-30T16:00:35.003Z,16.75
2022-11-30T16:03:12.578Z,17.63
2022-11-30T16:05:58.170Z,18.48
2022-11-30T16:08:34.944Z,18.80
2022-11-30T16:11:08.478Z,17.08
2022-11-30T16:13:42.833Z,17.80
2022-11-30T16:16:21.054Z,17.45
2022-11-30T16:18:53.825Z,16.90
2022-11-30T16:21:26.748Z,17.30
2022-11-30T16:23:59.627Z,16.27
2022-11-30T16:26:50.434Z,17.08
2022-11-30T16:29:25.487Z,17.40
2022-11-30T16:31:58.443Z,16.05
2022-11-30T16:37:05.119Z,17.00
2022-11-30T16:39:37.915Z,15.65
2022-11-30T16:42:13.222Z,14.80
2022-11-30T16:44:47.377Z,15.60
2022-11-30T16:47:20.141Z,17.02
2022-11-30T16:49:52.831Z,17.70
2022-11-30T16:52:25.558Z,18.63
2022-11-30T16:54:58.427Z,16.05
2022-11-30T16:57:31.307Z,17.20
2022-11-30T17:02:43.955Z,16.50
2022-11-30T17:05:20.408Z,16.55
2022-11-30T17:07:54.611Z,16.63
2022-11-30T17:10:28.104Z,18.13
2022-11-30T17:13:01.287Z,18.63
2022-11-30T17:15:35.463Z,18.45
2022-11-30T17:18:11.618Z,18.35
2022-11-30T17:20:44.867Z,18.48
2022-11-30T17:23:17.792Z,18.40
2022-11-30T17:28:23.637Z,18.98
2022-11-30T17:30:57.801Z,18.48
2022-11-30T17:33:32.787Z,19.23
2022-11-30T17:36:07.959Z,20.08
2022-11-30T17:38:44.234Z,19.90
2022-11-30T17:41:20.012Z,20.52
2022-11-30T17:43:53.271Z,19.85
2022-11-30T17:46:27.746Z,20.85
2022-11-30T17:49:00.764Z,18.50
2022-11-30T17:54:06.876Z,20.35
2022-11-30T17:56:40.933Z,21.67
2022-11-30T17:59:13.689Z,23.77
2022-11-30T18:01:47.931Z,26.55
2022-11-30T18:04:20.903Z,30.08
2022-11-30T18:09:28.810Z,29.40
2022-11-30T18:12:03.797Z,28.20
2022-11-30T18:14:37.035Z,30.13
2022-11-30T18:19:44.193Z,29.67
2022-11-30T18:22:17.120Z,28.10
2022-11-30T18:24:50.431Z,29.00
2022-11-30T18:27:24.041Z,29.52
2022-11-30T18:29:57.300Z,28.45
2022-11-30T18:32:31.966Z,28.23
2022-11-30T18:35:05.295Z,25.80
2022-11-30T18:37:38.233Z,30.00
2022-11-30T18:40:13.250Z,25.90
2022-11-30T18:42:48.623Z,27.30
2022-11-30T18:45:21.612Z,25.50
2022-11-30T18:50:31.089Z,25.60
2022-11-30T18:53:06.888Z,26.52
2022-11-30T18:55:39.965Z,24.00
2022-11-30T18:58:13.022Z,24.98
2022-11-30T19:03:24.449Z,22.17
2022-11-30T19:05:57.539Z,24.10
2022-11-30T19:08:30.817Z,24.10
2022-11-30T19:11:05.844Z,23.92
2022-11-30T19:13:38.945Z,24.60
2022-11-30T19:18:47.406Z,23.20
2022-11-30T19:21:25.292Z,23.67
2022-11-30T19:24:01.529Z,23.27
2022-11-30T19:26:40.132Z,23.42
2022-11-30T19:29:13.751Z,24.38
2022-11-30T19:31:47.047Z,24.15
2022-11-30T19:34:21.431Z,24.38
2022-11-30T19:36:54.506Z,23.13
2022-11-30T19:39:28.604Z,21.83
2022-11-30T19:42:01.866Z,23.58
2022-11-30T19:44:39.095Z,22.80
2022-11-30T19:47:12.185Z,22.05
2022-11-30T19:49:53.109Z,23.75
2022-11-30T19:52:26.592Z,23.38
2022-11-30T19:54:59.911Z,22.52
2022-11-30T19:57:33.035Z,22.25
2022-11-30T20:00:07.563Z,23.73
2022-11-30T20:02:48.219Z,22.45
2022-11-30T20:05:22.616Z,21.80
2022-11-30T20:07:56.270Z,21.65
2022-11-30T20:10:32.113Z,22.73
2022-11-30T20:13:05.370Z,20.80
2022-11-30T20:15:39.640Z,21.38
2022-11-30T20:18:14.603Z,22.67
2022-11-30T20:20:55.108Z,22.77
2022-11-30T20:23:30.315Z,21.90
2022-11-30T20:26:17.061Z,20.33
2022-11-30T20:28:51.980Z,21.52
2022-11-30T20:31:29.158Z,21.80
2022-11-30T20:34:02.586Z,22.05
2022-11-30T20:36:37.585Z,23.40
2022-11-30T20:39:14.487Z,22.55
2022-11-30T20:41:47.814Z,21.05
2022-11-30T20:44:21.346Z,22.45
2022-11-30T20:46:56.767Z,23.88
2022-11-30T20:49:32.142Z,21.42
2022-11-30T20:52:06.869Z,21.40
2022-11-30T20:54:39.671Z,21.45
2022-11-30T20:57:13.903Z,21.98
2022-11-30T20:59:47.025Z,22.52
2022-11-30T21:02:19.907Z,23.90
2022-11-30T21:04:54.212Z,21.02
2022-11-30T21:07:28.879Z,22.60
2022-11-30T21:10:01.712Z,20.52
2022-11-30T21:12:34.492Z,21.55
2022-11-30T21:15:09.780Z,20.23
2022-11-30T21:17:42.516Z,20.33
2022-11-30T21:20:15.295Z,19.45
2022-11-30T21:22:49.503Z,21.23
2022-11-30T21:25:22.514Z,19.85
2022-11-30T21:30:27.804Z,22.53
2022-11-30T21:33:03.342Z,22.27
2022-11-30T21:35:36.318Z,21.52
2022-11-30T21:40:43.911Z,21.35
2022-11-30T21:43:16.693Z,20.33
2022-11-30T21:45:57.849Z,23.00
2022-11-30T21:48:32.542Z,19.73
2022-11-30T21:51:07.646Z,20.42
2022-11-30T21:53:44.038Z,20.33
2022-11-30T21:56:19.562Z,21.15
2022-11-30T21:58:53.422Z,21.05
2022-11-30T22:01:29.110Z,21.27
2022-11-30T22:04:02.976Z,19.63
2022-11-30T22:06:37.652Z,20.30
2022-11-30T22:09:14.950Z,20.30
2022-11-30T22:11:50.090Z,18.42
2022-11-30T22:14:23.449Z,18.73
2022-11-30T22:16:57.118Z,19.15
2022-11-30T22:19:30.040Z,18.52
2022-11-30T22:22:02.851Z,17.98
2022-11-30T22:27:09.871Z,19.73
2022-11-30T22:29:42.645Z,18.63
2022-11-30T22:32:15.437Z,18.60
2022-11-30T22:34:48.201Z,17.98
2022-11-30T22:39:55.107Z,17.70
2022-11-30T22:42:27.975Z,16.75
2022-11-30T22:45:00.705Z,19.05
2022-11-30T22:47:33.865Z,16.58
2022-11-30T22:50:07.900Z,17.55
2022-11-30T22:53:02.051Z,17.42
2022-11-30T22:55:48.241Z,18.10
2022-11-30T22:58:21.615Z,17.00
2022-11-30T23:00:54.798Z,17.63
2022-11-30T23:03:31.399Z,18.02
2022-11-30T23:06:04.625Z,17.67
2022-11-30T23:08:41.583Z,17.45
2022-11-30T23:11:19.178Z,16.02
2022-11-30T23:13:52.916Z,15.65
2022-11-30T23:16:26.598Z,18.02
2022-11-30T23:19:01.572Z,16.02
2022-11-30T23:21:41.078Z,15.82
2022-11-30T23:24:17.073Z,16.52
2022-11-30T23:26:51.496Z,15.85
2022-11-30T23:29:24.768Z,16.17
2022-11-30T23:31:57.873Z,16.50
2022-11-30T23:34:30.854Z,15.40
2022-11-30T23:37:03.643Z,16.25
2022-11-30T23:39:36.535Z,17.58
2022-11-30T23:44:43.240Z,15.90
2022-11-30T23:47:18.441Z,15.30
2022-11-30T23:49:51.922Z,15.93
2022-11-30T23:52:25.031Z,15.52
2022-11-30T23:55:00.368Z,14.80
2022-11-30T23:57:35.156Z,16.05
